Flight Track Log - Related Links

Times and Time Zones

All times are in EDT time to prevent confusion due to time zone crossing. See the EGF4247 flight status page for this flight to view local times or setup timezone preferences in your user account.

Time Position Orientation Groundspeed Altitude Reporting Facility
EDT Latitude Longitude Course Direction KTS MPH feet Rate Location/Type
Sat 03:51:37 PM 42.9333 -78.7500 270° West 151 174 1,400  Level Buffalo TRACON
Sat 03:52:37 PM 42.9000 -78.8000 228° Southwest 193 222 3,500 2,000 Climbing Buffalo TRACON
Sat 03:53:25 PM 42.9000 -78.8667 270° West 239 275 5,000 1,853 Climbing Buffalo TRACON
Sat 03:53:45 PM 42.8833 -78.8833 216° Southwest 220 253 5,600 2,475 Climbing Toronto Center
Sat 03:54:00 PM 42.9500 -79.0603 270° West  Level FlightAware Approximate
Sat 03:54:45 PM 42.9167 -78.9667 299° West 250 288 8,300  Level Toronto Center
Sat 03:55:00 PM 42.9591 -79.1750 277° West  Level FlightAware Approximate
Sat 03:55:45 PM 42.9333 -79.0667 283° West 260 299 10,300  Level Toronto Center
Sat 03:56:00 PM 42.9667 -79.2899 270° West  Level FlightAware Approximate
Sat 03:56:45 PM 42.9500 -79.1833 281° West 280 322 11,900  Level Toronto Center
Sat 03:57:00 PM 42.9667 -79.4053 270° West  Level FlightAware Approximate
Sat 03:57:45 PM 42.9500 -79.2833 270° West 310 357 13,600  Level Toronto Center
Sat 03:58:45 PM 42.9667 -79.4000 281° West 330 380 13,900 800 Climbing Toronto Center
Sat 03:59:45 PM 42.9667 -79.5500 270° West 360 414 15,200 1,350 Climbing Toronto Center
Sat 04:00:45 PM 42.9667 -79.6833 270° West 360 414 16,600 1,450 Climbing Toronto Center
Sat 04:01:45 PM 42.9833 -79.8167 280° West 350 403 18,100 1,400 Climbing Toronto Center
Sat 04:02:45 PM 42.9833 -79.9500 270° West 350 403 19,400 1,450 Climbing Toronto Center
Sat 04:03:45 PM 42.9833 -80.0667 270° West 350 403 21,000 1,700 Climbing Toronto Center
Sat 04:04:45 PM 43.0000 -80.2000 280° West 350 403 22,800 1,750 Climbing Toronto Center
Sat 04:05:45 PM 43.0000 -80.3333 270° West 340 391 24,500 1,650 Climbing Toronto Center
Sat 04:06:45 PM 43.0000 -80.4500 270° West 330 380 26,100 1,700 Climbing Toronto Center
Sat 04:07:45 PM 43.0167 -80.5833 280° West 320 368 27,900 1,650 Climbing Toronto Center
Sat 04:08:45 PM 43.0167 -80.7000 270° West 310 357 29,400 1,050 Climbing Toronto Center
Sat 04:09:45 PM 43.0000 -80.8167 259° West 320 368 30,000 300 Climbing Toronto Center
Sat 04:10:45 PM 43.0167 -80.9500 280° West 350 403 30,000  Level Toronto Center
Sat 04:11:45 PM 43.0167 -81.1167 270° West 370 426 30,000  Level Toronto Center
Sat 04:12:45 PM 43.0167 -81.2500 270° West 380 437 30,000  Level Toronto Center
Sat 04:13:45 PM 43.0167 -81.3833 270° West 370 426 30,000  Level Toronto Center
Sat 04:14:45 PM 43.0167 -81.5333 270° West 370 426 30,000  Level Toronto Center
Sat 04:15:45 PM 43.0167 -81.6667 270° West 370 426 30,000  Level Toronto Center
Sat 04:16:45 PM 43.0167 -81.8000 270° West 370 426 30,000 100 Level Toronto Center
Sat 04:17:45 PM 43.0000 -81.9333 260° West 370 426 30,200 550 Climbing Toronto Center
Sat 04:18:45 PM 43.0000 -82.0667 270° West 360 414 31,100 900 Climbing Toronto Center
Sat 04:19:45 PM 43.0000 -82.2167 270° West 350 403 32,000 450 Climbing Toronto Center
Sat 04:20:45 PM 43.0000 -82.3500 270° West 350 403 32,000  Level Toronto Center
Sat 04:21:45 PM 43.0000 -82.4833 270° West 350 403 32,000  Level Toronto Center
Sat 04:22:45 PM 43.0167 -82.6000 281° West 350 403 32,000  Level Toronto Center
Sat 04:23:20 PM 43.0394 -82.6739 293° West 338 389 32,000  Level Cleveland Center
Sat 04:24:21 PM 43.1000 -82.7811 308° West 332 382 32,000  Level Cleveland Center
Sat 04:25:20 PM 43.1686 -82.8944 310° West 354 407 32,000  Level Cleveland Center
Sat 04:26:20 PM 43.2061 -82.9928 298° West 348 400 32,000  Level Cleveland Center
Sat 04:27:20 PM 43.1867 -83.1203 258° West 320 368 32,000  Level Cleveland Center
Sat 04:28:20 PM 43.1117 -83.2194 224° Southwest 315 362 32,000  Level Cleveland Center
Sat 04:29:20 PM 43.0322 -83.3214 223° Southwest 353 406 32,000  Level Cleveland Center
Sat 04:30:20 PM 42.9669 -83.4347 232° Southwest 378 435 32,000  Level Cleveland Center
Sat 04:31:20 PM 42.9550 -83.5761 263° West 369 425 32,000  Level Cleveland Center
Sat 04:32:20 PM 42.9617 -83.7125 274° West 361 415 32,000  Level Cleveland Center
Sat 04:33:20 PM 42.9553 -83.8656 267° West 366 421 32,000  Level Cleveland Center
Sat 04:34:20 PM 42.9411 -84.0008 262° West 366 421 32,000  Level Cleveland Center
Sat 04:35:20 PM 42.9286 -84.1392 263° West 366 421 32,000  Level Cleveland Center
Sat 04:35:49 PM 42.9228 -84.2036 263° West 366 421 32,000  Level Chicago Center
Sat 04:36:51 PM 42.9094 -84.3411 263° West 367 422 32,000  Level Chicago Center
Sat 04:37:53 PM 42.8953 -84.4786 262° West 367 422 32,000  Level Chicago Center
Sat 04:38:54 PM 42.8819 -84.6158 262° West 367 422 32,000  Level Chicago Center
Sat 04:39:56 PM 42.8664 -84.7531 261° West 368 423 32,000  Level Chicago Center
Sat 04:40:58 PM 42.8522 -84.8917 262° West 369 425 32,000  Level Chicago Center
Sat 04:42:00 PM 42.8381 -85.0292 262° West 367 422 32,000  Level Chicago Center
Sat 04:43:02 PM 42.8192 -85.1978 261° West 375 432 32,000  Level Chicago Center
Sat 04:44:03 PM 42.8050 -85.3358 262° West 369 425 32,000  Level Chicago Center
Sat 04:45:05 PM 42.7897 -85.4767 262° West 373 429 32,000 -484 Level Chicago Center
Sat 04:46:07 PM 42.7661 -85.6156 257° West 376 433 31,000 -1,839 Descending Chicago Center
Sat 04:47:09 PM 42.7394 -85.7611 256° West 390 449 28,200 -2,732 Descending Chicago Center
Sat 04:48:10 PM 42.7131 -85.9047 256° West 390 449 25,400 -2,732 Descending Chicago Center
Sat 04:49:12 PM 42.6883 -86.0428 256° West 377 434 22,600 -2,371 Descending Chicago Center
Sat 04:50:14 PM 42.6631 -86.1783 256° West 371 427 20,500 -1,854 Descending Chicago Center
Sat 04:51:15 PM 42.6397 -86.3058 256° West 356 410 18,800 -1,756 Descending Chicago Center
Sat 04:52:17 PM 42.6108 -86.4589 256° West 350 403 16,900 -1,645 Descending Chicago Center
Sat 04:53:19 PM 42.5864 -86.5844 255° West 345 397 15,400 -1,512 Descending Chicago Center
Sat 04:54:20 PM 42.5639 -86.7078 256° West 339 390 13,800 -1,512 Descending Chicago Center
Sat 04:55:22 PM 42.5339 -86.8319 252° West 347 399 12,300 -1,268 Descending Chicago Center
Sat 04:56:23 PM 42.5008 -86.9500 249° West 337 388 11,200 -1,073 Descending Chicago Center
Sat 04:57:25 PM 42.4725 -87.0506 249° West 291 335 10,100 -968 Descending Chicago Center
Sat 04:58:27 PM 42.4456 -87.1450 249° West 271 312 9,200 -683 Descending Chicago Center
Sat 04:59:28 PM 42.4181 -87.2436 249° West 278 320 8,700 -816 Descending Chicago Center
Sat 05:00:32 PM 42.3847 -87.3556 248° West 270 311 7,500 -857 Descending Chicago Center
Sat 05:01:34 PM 42.3589 -87.4431 248° West 259 298 6,900 -244 Descending Chicago Center
Sat 05:02:35 PM 42.3250 -87.5281 242° Southwest 257 296 7,000 49 Climbing Chicago Center
Sat 05:03:37 PM 42.2647 -87.5986 221° Southwest 262 302 7,000 -339 Level Chicago Center
Sat 05:04:39 PM 42.2119 -87.6614 221° Southwest 256 295 6,300 -677 Descending Chicago Center

Login

Don't have an account? Register now (free) for customized features, flight alerts, and more!